Time;durP1;ratioP1;P1;durP2;ratioP2;P2;SDS_P1;SDS_P2;PMS_P1;PMS_P2;Temp;Humidity;BMP_temperature;BMP_pressure;BME280_temperature;BME280_humidity;BME280_pressure;Samples;Min_cycle;Max_cycle;Signal;HPM_P1;HPM_P2
2023/03/08 00:01:19;;;;;;;13.88;7.20;;;;;;;9.05;77.41;99554.16;4954609;29;20067;-69
2023/03/08 00:03:50;;;;;;;18.42;8.55;;;;;;;8.97;77.57;99561.09;4956425;29;20517;-69
2023/03/08 00:06:18;;;;;;;15.32;7.63;;;;;;;8.80;78.08;99575.25;4956309;29;20375;-70
2023/03/08 00:08:47;;;;;;;13.23;8.15;;;;;;;8.73;78.60;99570.13;4960613;28;20054;-70
2023/03/08 00:11:16;;;;;;;18.10;8.45;;;;;;;8.62;79.20;99555.81;4975362;28;20047;-69
2023/03/08 00:13:44;;;;;;;16.90;7.50;;;;;;;8.60;79.54;99561.56;4956709;28;20382;-70
2023/03/08 00:16:12;;;;;;;14.90;8.55;;;;;;;8.57;79.66;99564.84;4975290;28;20051;-69
2023/03/08 00:18:40;;;;;;;19.17;8.10;;;;;;;8.68;79.41;99573.75;4975371;28;20058;-69
2023/03/08 00:21:17;;;;;;;18.65;8.60;;;;;;;8.71;78.83;99561.44;4974858;28;20046;-70
2023/03/08 00:23:45;;;;;;;16.02;8.73;;;;;;;8.69;78.41;99561.72;4957639;28;20051;-69
2023/03/08 00:26:13;;;;;;;16.15;7.30;;;;;;;8.64;79.24;99561.00;4974707;28;20054;-70
2023/03/08 00:28:41;;;;;;;18.00;8.30;;;;;;;8.54;78.88;99551.81;4956866;28;20050;-69
2023/03/08 00:31:11;;;;;;;18.63;8.40;;;;;;;8.42;78.57;99541.28;4974782;28;20393;-70
2023/03/08 00:33:39;;;;;;;15.98;9.02;;;;;;;8.43;77.77;99558.47;4957330;28;20374;-69
2023/03/08 00:36:11;;;;;;;16.17;9.60;;;;;;;8.39;78.78;99562.88;4964342;28;20047;-69
2023/03/08 00:38:39;;;;;;;16.65;8.32;;;;;;;8.30;79.13;99568.13;4957665;28;20046;-69
2023/03/08 00:41:07;;;;;;;13.68;8.13;;;;;;;8.25;79.59;99569.03;4958816;28;20078;-70
2023/03/08 00:43:34;;;;;;;20.05;8.43;;;;;;;8.22;79.80;99560.59;4938593;29;20047;-69
2023/03/08 00:46:05;;;;;;;18.25;9.07;;;;;;;8.19;79.80;99556.53;4955475;29;20055;-69
2023/03/08 00:48:33;;;;;;;16.70;9.25;;;;;;;8.06;80.21;99552.59;4955316;29;20047;-69
2023/03/08 00:51:00;;;;;;;25.63;8.95;;;;;;;7.99;80.90;99547.50;4955466;29;20066;-69
2023/03/08 00:53:29;;;;;;;17.25;9.55;;;;;;;8.02;80.28;99552.34;4990968;28;20062;-69
2023/03/08 00:55:59;;;;;;;22.20;8.98;;;;;;;7.96;80.19;99550.78;4976742;28;20053;-69
2023/03/08 00:58:30;;;;;;;21.23;11.30;;;;;;;7.97;80.82;99549.69;4976003;28;20062;-69
2023/03/08 01:00:58;;;;;;;18.23;9.40;;;;;;;7.95;80.50;99549.16;4976565;28;20378;-69
2023/03/08 01:03:26;;;;;;;20.88;10.77;;;;;;;7.93;80.81;99543.19;4992250;28;20047;-69
2023/03/08 01:05:56;;;;;;;20.38;9.43;;;;;;;7.88;81.02;99545.97;4957075;28;20050;-69
2023/03/08 01:08:25;;;;;;;19.65;10.52;;;;;;;7.84;80.99;99548.47;4974012;28;20054;-69
2023/03/08 01:10:59;;;;;;;17.17;10.23;;;;;;;7.87;81.59;99560.69;4974388;28;20835;-69
2023/03/08 01:13:30;;;;;;;16.65;9.25;;;;;;;7.83;81.31;99554.19;4957086;28;20054;-69
2023/03/08 01:15:58;;;;;;;28.13;11.23;;;;;;;7.80;81.32;99556.38;4957022;28;20054;-69
2023/03/08 01:18:26;;;;;;;20.45;10.10;;;;;;;7.79;81.74;99552.00;4974062;28;20053;-69
2023/03/08 01:20:55;;;;;;;28.20;9.15;;;;;;;7.73;81.33;99545.00;4956967;28;20039;-69
2023/03/08 01:23:23;;;;;;;20.17;10.02;;;;;;;7.86;80.69;99548.19;4973699;28;20051;-69
2023/03/08 01:26:02;;;;;;;20.77;9.90;;;;;;;7.92;79.91;99557.91;4974133;28;20046;-69
2023/03/08 01:28:31;;;;;;;20.50;10.50;;;;;;;7.85;80.89;99546.53;4979471;28;20401;-69
2023/03/08 01:31:04;;;;;;;20.17;10.80;;;;;;;7.73;81.46;99550.44;4993397;28;20042;-70
2023/03/08 01:33:34;;;;;;;22.80;10.20;;;;;;;7.53;81.66;99535.13;4993342;28;20046;-69
2023/03/08 01:36:07;;;;;;;18.30;9.82;;;;;;;7.46;83.35;99542.78;4975764;28;20054;-69
2023/03/08 01:38:36;;;;;;;23.52;10.60;;;;;;;7.43;83.06;99538.72;4975826;28;20054;-69
2023/03/08 01:41:06;;;;;;;17.48;9.65;;;;;;;7.44;83.00;99536.81;4975879;28;20077;-69
2023/03/08 01:43:37;;;;;;;23.00;10.30;;;;;;;7.44;82.24;99537.63;4975867;28;20047;-69
2023/03/08 01:46:20;;;;;;;18.67;10.00;;;;;;;7.44;82.57;99540.38;4975739;28;20051;-69
2023/03/08 01:49:12;;;;;;;16.38;9.65;;;;;;;7.37;83.24;99548.00;4975527;28;20050;-69
2023/03/08 01:51:57;;;;;;;21.83;9.60;;;;;;;7.43;82.85;99537.91;4993137;28;20046;-69
2023/03/08 01:54:28;;;;;;;21.17;11.32;;;;;;;7.43;82.44;99540.63;4993160;28;20042;-69
2023/03/08 01:57:08;;;;;;;18.55;9.27;;;;;;;7.37;82.51;99554.28;4992894;28;20054;-69
2023/03/08 01:59:37;;;;;;;18.48;9.85;;;;;;;7.25;84.33;99551.91;4975567;28;20576;-69
2023/03/08 02:02:05;;;;;;;25.05;10.15;;;;;;;7.20;83.89;99551.13;4975552;28;20038;-69
2023/03/08 02:04:34;;;;;;;18.27;9.85;;;;;;;7.22;83.76;99554.38;4975518;28;20043;-69
2023/03/08 02:07:02;;;;;;;17.85;9.88;;;;;;;7.25;83.38;99545.66;4992785;28;20050;-69
2023/03/08 02:09:32;;;;;;;20.08;9.65;;;;;;;7.21;84.81;99559.03;4975595;28;20073;-69
2023/03/08 02:12:07;;;;;;;20.52;10.02;;;;;;;7.10;84.28;99568.34;4975384;28;20050;-69
2023/03/08 02:14:34;;;;;;;24.15;11.25;;;;;;;7.07;84.26;99567.00;4992781;28;20114;-69
2023/03/08 02:17:02;;;;;;;17.77;9.13;;;;;;;7.09;84.61;99558.56;4975408;28;20049;-69
2023/03/08 02:20:21;;;;;;;20.13;9.93;;;;;;;7.05;84.81;99558.31;4992720;28;20053;-69
2023/03/08 02:22:52;;;;;;;20.42;10.13;;;;;;;7.03;85.67;99552.31;4944224;28;20067;-69
2023/03/08 02:25:25;;;;;;;22.67;11.13;;;;;;;7.05;85.49;99552.06;4975293;28;20046;-69
2023/03/08 02:27:53;;;;;;;22.53;10.20;;;;;;;7.05;85.27;99554.78;4990868;28;20062;-69
2023/03/08 02:30:24;;;;;;;26.08;12.20;;;;;;;7.13;84.64;99554.16;4952762;29;20039;-69
2023/03/08 02:32:53;;;;;;;24.48;11.25;;;;;;;7.29;84.66;99551.34;4953987;29;20525;-69
2023/03/08 02:35:21;;;;;;;17.85;10.82;;;;;;;7.25;83.54;99560.06;4953191;28;20047;-69
2023/03/08 02:37:48;;;;;;;25.58;10.50;;;;;;;7.15;83.74;99560.16;4964194;28;20046;-69
2023/03/08 02:40:16;;;;;;;23.33;10.88;;;;;;;7.09;83.92;99550.41;4959448;28;20038;-69
2023/03/08 02:42:44;;;;;;;16.42;9.50;;;;;;;6.99;84.25;99548.53;4956449;29;20170;-69
2023/03/08 02:45:12;;;;;;;24.00;9.90;;;;;;;6.94;84.44;99543.94;4959686;28;20046;-69
2023/03/08 02:47:41;;;;;;;26.35;10.52;;;;;;;6.88;85.21;99536.91;4976942;28;20046;-69
2023/03/08 02:50:09;;;;;;;16.48;9.25;;;;;;;6.78;85.50;99536.97;4959549;28;20050;-69
2023/03/08 02:52:38;;;;;;;17.92;8.65;;;;;;;6.75;85.86;99538.31;4959681;28;20053;-69
2023/03/08 02:55:06;;;;;;;17.30;9.20;;;;;;;6.76;86.14;99528.28;4976841;28;20047;-69
2023/03/08 02:57:34;;;;;;;23.10;10.20;;;;;;;6.81;86.98;99530.97;4969758;28;20394;-69
2023/03/08 03:00:04;;;;;;;23.25;9.93;;;;;;;6.90;85.65;99537.47;4940276;29;20051;-69
2023/03/08 03:02:33;;;;;;;21.00;9.95;;;;;;;6.96;85.29;99528.19;4957230;29;20047;-69
2023/03/08 03:05:03;;;;;;;22.08;10.98;;;;;;;6.89;86.59;99524.94;4940207;29;20394;-69
2023/03/08 03:07:34;;;;;;;22.08;10.82;;;;;;;6.97;85.91;99524.34;4940153;29;20077;-69
2023/03/08 03:10:04;;;;;;;26.33;9.70;;;;;;;6.95;85.70;99526.53;4939816;29;20380;-69
2023/03/08 03:12:32;;;;;;;22.65;10.52;;;;;;;6.91;85.72;99549.13;4940034;29;20043;-69
2023/03/08 03:15:02;;;;;;;16.02;8.70;;;;;;;6.87;85.76;99535.28;4940118;29;20055;-69
2023/03/08 03:17:31;;;;;;;21.65;9.82;;;;;;;6.87;85.69;99529.84;4957170;29;20490;-69
2023/03/08 03:19:58;;;;;;;18.45;9.88;;;;;;;6.85;85.79;99538.28;4957117;29;20039;-69
2023/03/08 03:22:27;;;;;;;22.60;10.88;;;;;;;6.79;86.95;99535.88;4940083;29;20047;-69
2023/03/08 03:24:55;;;;;;;20.70;8.88;;;;;;;6.70;87.40;99544.63;4939899;29;20058;-69
2023/03/08 03:27:23;;;;;;;20.05;9.23;;;;;;;6.70;86.78;99551.97;4924133;29;20490;-69
2023/03/08 03:29:53;;;;;;;13.70;8.23;;;;;;;6.75;86.74;99553.84;4939703;29;20506;-69
2023/03/08 03:32:21;;;;;;;20.30;8.80;;;;;;;6.70;87.03;99563.66;4939996;29;20058;-69
2023/03/08 03:34:49;;;;;;;17.63;8.98;;;;;;;6.72;87.87;99566.09;4969527;28;20038;-69
2023/03/08 03:37:20;;;;;;;18.02;8.85;;;;;;;6.69;87.50;99572.06;4958837;28;20042;-69
2023/03/08 03:39:48;;;;;;;20.52;9.40;;;;;;;6.65;87.46;99577.25;4975978;28;20054;-69
2023/03/08 03:42:17;;;;;;;19.65;9.50;;;;;;;6.66;87.10;99568.03;4943187;28;20054;-69
2023/03/08 03:45:03;;;;;;;18.55;7.68;;;;;;;6.71;87.36;99568.00;4958834;28;20054;-69
2023/03/08 03:47:31;;;;;;;16.45;8.88;;;;;;;6.66;86.99;99576.19;4942509;28;20042;-69
2023/03/08 03:50:03;;;;;;;19.13;8.30;;;;;;;6.70;87.29;99571.00;4958461;28;20055;-69
2023/03/08 03:52:39;;;;;;;12.63;7.72;;;;;;;6.47;87.60;99576.00;4943934;28;20050;-69
2023/03/08 03:55:08;;;;;;;20.65;8.63;;;;;;;6.38;87.83;99575.75;4975781;28;20485;-69
2023/03/08 03:57:36;;;;;;;12.60;7.47;;;;;;;6.32;88.08;99574.94;4942712;28;20042;-69
2023/03/08 04:00:05;;;;;;;14.52;7.45;;;;;;;6.34;87.76;99580.09;4958330;28;20689;-69
2023/03/08 04:02:39;;;;;;;14.55;8.00;;;;;;;6.30;88.56;99582.56;4975657;28;20409;-69
2023/03/08 04:05:11;;;;;;;10.88;7.28;;;;;;;6.38;88.29;99583.06;4958442;28;20397;-69
2023/03/08 04:07:39;;;;;;;15.90;7.50;;;;;;;6.36;88.40;99575.19;4957724;28;20050;-69
2023/03/08 04:10:07;;;;;;;18.95;7.22;;;;;;;6.32;88.60;99593.16;4957878;28;20494;-69
2023/03/08 04:12:36;;;;;;;16.95;7.95;;;;;;;6.35;88.46;99591.78;4958163;28;20046;-69
2023/03/08 04:15:05;;;;;;;14.95;8.20;;;;;;;6.36;88.59;99591.50;4975409;28;20352;-69
2023/03/08 04:17:33;;;;;;;13.15;6.88;;;;;;;6.34;88.48;99601.84;4957075;28;20054;-69
2023/03/08 04:20:04;;;;;;;13.23;6.78;;;;;;;6.49;87.56;99611.06;4957928;28;20047;-69
2023/03/08 04:22:36;;;;;;;17.40;8.15;;;;;;;6.48;88.53;99612.13;4958056;28;20051;-69
2023/03/08 04:25:15;;;;;;;13.27;6.95;;;;;;;6.37;88.23;99617.59;4958007;28;20055;-69
2023/03/08 04:27:49;;;;;;;;;;;;;;;6.35;88.82;99617.03;4958192;28;20047;-69
2023/03/08 04:30:19;;;;;;;13.93;8.02;;;;;;;6.18;88.73;99612.75;4957858;28;19948;-69
2023/03/08 04:32:47;;;;;;;19.05;8.82;;;;;;;6.19;89.04;99618.97;4957940;28;20399;-69
2023/03/08 04:35:15;;;;;;;18.63;8.07;;;;;;;6.17;89.11;99621.97;4941508;29;20043;-69
2023/03/08 04:37:46;;;;;;;17.42;8.52;;;;;;;6.10;89.62;99626.06;4923173;29;20051;-69
2023/03/08 04:40:18;;;;;;;15.73;8.35;;;;;;;6.08;89.92;99633.66;4938475;29;20058;-69
2023/03/08 04:42:52;;;;;;;12.13;7.85;;;;;;;6.19;88.79;99621.69;4938581;29;20120;-69
2023/03/08 04:45:26;;;;;;;15.23;9.02;;;;;;;6.36;87.74;99623.31;4955456;28;20058;-69
2023/03/08 04:47:57;;;;;;;20.02;9.10;;;;;;;6.36;87.12;99629.53;4957004;28;20046;-69
2023/03/08 04:50:25;;;;;;;19.77;9.10;;;;;;;6.34;87.10;99626.28;4957419;28;20061;-69
2023/03/08 04:52:56;;;;;;;20.83;10.00;;;;;;;6.25;87.46;99630.66;4957545;28;20058;-69
2023/03/08 04:55:24;;;;;;;16.27;8.90;;;;;;;6.23;87.69;99625.50;4939342;29;20043;-69
2023/03/08 04:57:52;;;;;;;16.48;9.35;;;;;;;6.20;87.47;99627.97;4937645;29;20391;-69
2023/03/08 05:00:21;;;;;;;22.38;10.32;;;;;;;6.17;87.65;99627.41;4937959;29;20047;-69
2023/03/08 05:02:48;;;;;;;18.17;8.43;;;;;;;6.03;88.40;99642.63;4955159;29;20368;-69
2023/03/08 05:05:18;;;;;;;19.00;8.65;;;;;;;6.04;88.76;99633.41;4938028;29;20525;-69
2023/03/08 05:07:46;;;;;;;18.20;9.07;;;;;;;6.07;89.41;99635.59;4954963;29;20058;-69
2023/03/08 05:10:14;;;;;;;15.52;8.80;;;;;;;6.20;88.54;99630.69;4937590;29;20063;-69
2023/03/08 05:12:42;;;;;;;16.88;7.97;;;;;;;6.24;87.80;99634.44;4955061;29;20050;-69
2023/03/08 05:15:10;;;;;;;14.18;7.35;;;;;;;6.23;88.56;99635.53;4954977;29;20048;-69
2023/03/08 05:17:38;;;;;;;13.27;7.60;;;;;;;6.23;88.34;99632.81;4937765;29;20043;-69
2023/03/08 05:20:07;;;;;;;17.20;8.15;;;;;;;6.22;88.96;99629.31;4954848;29;20062;-70
2023/03/08 05:22:38;;;;;;;20.90;8.65;;;;;;;6.91;90.66;99631.56;4937934;29;20043;-80
2023/03/08 05:25:25;;;;;;;19.27;8.52;;;;;;;6.83;84.87;99622.06;4948335;28;20421;-69
2023/03/08 05:27:53;;;;;;;18.58;7.72;;;;;;;6.98;84.91;99634.78;4973585;28;20693;-68
2023/03/08 05:30:22;;;;;;;19.17;7.55;;;;;;;6.89;84.46;99635.66;4955914;28;20051;-68
2023/03/08 05:32:51;;;;;;;16.35;7.28;;;;;;;6.78;85.28;99643.00;4950096;28;20046;-68
2023/03/08 05:35:19;;;;;;;17.58;8.43;;;;;;;6.79;85.37;99631.88;4954900;29;20394;-68
2023/03/08 05:37:50;;;;;;;18.15;7.72;;;;;;;6.70;85.62;99625.38;4956892;28;20058;-68
2023/03/08 05:40:18;;;;;;;14.77;7.22;;;;;;;6.68;84.83;99631.09;4956560;28;20046;-68
2023/03/08 05:42:47;;;;;;;13.98;6.97;;;;;;;6.65;85.38;99636.28;4956933;28;20061;-68
2023/03/08 05:45:16;;;;;;;14.57;7.65;;;;;;;6.65;85.36;99631.63;4955837;28;20051;-69
2023/03/08 05:47:45;;;;;;;17.08;7.57;;;;;;;6.61;84.58;99630.59;4935564;28;20042;-69
2023/03/08 05:50:12;;;;;;;16.67;7.30;;;;;;;6.75;83.91;99630.00;4953475;29;20051;-68
2023/03/08 05:52:44;;;;;;;14.85;7.50;;;;;;;6.60;84.62;99637.09;4956628;28;20050;-68
2023/03/08 05:55:16;;;;;;;15.20;7.57;;;;;;;6.49;84.42;99636.31;4956459;28;20416;-68
2023/03/08 05:57:46;;;;;;;15.68;7.68;;;;;;;6.51;84.48;99631.41;4956633;28;20231;-68
2023/03/08 06:00:15;;;;;;;12.45;7.35;;;;;;;6.55;84.14;99648.00;4973759;28;20490;-68
2023/03/08 06:02:42;;;;;;;14.85;6.95;;;;;;;6.52;84.90;99635.78;4973477;28;20393;-70
2023/03/08 06:05:12;;;;;;;14.05;7.55;;;;;;;6.50;85.03;99634.41;4937867;28;20517;-69
2023/03/08 06:07:42;;;;;;;14.57;7.65;;;;;;;6.44;85.19;99642.59;4954746;28;20051;-69
2023/03/08 06:10:13;;;;;;;14.05;7.00;;;;;;;6.58;84.70;99647.44;4951367;28;20402;-68
2023/03/08 06:12:41;;;;;;;13.63;7.03;;;;;;;6.61;84.83;99646.91;4935802;29;20051;-69
2023/03/08 06:15:12;;;;;;;16.00;7.60;;;;;;;6.65;84.62;99642.50;4935191;29;20069;-69
2023/03/08 06:17:40;;;;;;;16.65;7.60;;;;;;;6.72;84.44;99653.09;4953815;29;20051;-69
2023/03/08 06:20:10;;;;;;;13.88;7.03;;;;;;;6.84;83.62;99642.72;4936727;29;20070;-69
2023/03/08 06:22:41;;;;;;;18.67;7.38;;;;;;;7.06;83.27;99652.44;4936878;29;20406;-69
2023/03/08 06:25:10;;;;;;;18.98;7.95;;;;;;;7.09;82.96;99660.03;4952807;29;20054;-69
2023/03/08 06:27:39;;;;;;;14.48;8.18;;;;;;;7.12;82.71;99666.81;4936596;29;20047;-69
2023/03/08 06:30:15;;;;;;;14.88;7.90;;;;;;;7.13;83.12;99671.16;4945359;28;20049;-69
2023/03/08 06:32:43;;;;;;;15.43;7.50;;;;;;;7.06;83.42;99676.09;4952144;29;20050;-69
2023/03/08 06:35:11;;;;;;;16.55;7.85;;;;;;;7.24;83.73;99682.84;4959870;28;20046;-69
2023/03/08 06:37:46;;;;;;;17.65;8.10;;;;;;;7.24;82.84;99686.34;4959571;28;20046;-69
2023/03/08 06:40:15;;;;;;;16.33;7.78;;;;;;;7.21;81.80;99697.81;4954764;28;20050;-68
2023/03/08 06:42:43;;;;;;;15.90;8.25;;;;;;;6.97;82.68;99701.16;4970651;28;20043;-69
2023/03/08 06:45:13;;;;;;;14.88;9.40;;;;;;;7.01;83.10;99708.75;4971403;28;20534;-69
2023/03/08 06:47:41;;;;;;;22.90;9.77;;;;;;;7.12;82.76;99710.34;4955691;28;20045;-69
2023/03/08 06:50:11;;;;;;;26.20;10.63;;;;;;;7.16;82.39;99713.34;4955903;28;20038;-69
2023/03/08 06:52:41;;;;;;;22.55;10.20;;;;;;;7.38;82.05;99711.06;4956075;28;20047;-69
2023/03/08 06:55:10;;;;;;;21.15;10.10;;;;;;;7.47;82.05;99705.84;4973162;28;20043;-69
2023/03/08 06:57:37;;;;;;;18.50;9.68;;;;;;;7.97;80.39;99706.91;4955756;28;20058;-69
2023/03/08 07:00:08;;;;;;;27.33;10.88;;;;;;;7.88;80.41;99714.88;4955089;28;20055;-69
2023/03/08 07:02:36;;;;;;;29.70;11.25;;;;;;;7.70;80.37;99721.78;4973061;28;20390;-69
2023/03/08 07:05:04;;;;;;;19.75;10.68;;;;;;;7.83;79.37;99733.97;4973062;28;20043;-69
2023/03/08 07:07:34;;;;;;;23.00;11.95;;;;;;;7.79;80.08;99736.44;4972926;28;20047;-69
2023/03/08 07:10:03;;;;;;;20.60;10.73;;;;;;;7.62;81.52;99742.25;4952201;29;20051;-69
2023/03/08 07:12:31;;;;;;;27.67;12.18;;;;;;;7.69;81.48;99753.66;4953551;29;20043;-69
2023/03/08 07:14:59;;;;;;;25.10;11.35;;;;;;;7.93;80.44;99755.69;4953581;29;20066;-70
2023/03/08 07:17:27;;;;;;;18.30;10.10;;;;;;;8.14;80.42;99750.09;4938104;29;20055;-70
2023/03/08 07:19:55;;;;;;;27.80;11.88;;;;;;;8.20;80.10;99748.94;4934052;29;20044;-70
2023/03/08 07:22:23;;;;;;;28.45;10.13;;;;;;;8.41;79.90;99752.31;4934417;29;20043;-69
2023/03/08 07:24:50;;;;;;;27.33;12.32;;;;;;;8.72;77.40;99746.66;4936071;29;20043;-69
2023/03/08 07:27:18;;;;;;;26.45;13.68;;;;;;;8.66;77.42;99764.13;4937586;29;20052;-70
2023/03/08 07:29:46;;;;;;;31.88;14.98;;;;;;;8.84;77.91;99764.50;4936448;29;20055;-70
2023/03/08 07:32:14;;;;;;;26.38;12.93;;;;;;;8.93;77.55;99772.88;4937688;29;20047;-70
2023/03/08 07:34:43;;;;;;;27.65;12.45;;;;;;;9.25;75.95;99772.25;4936502;29;20044;-70
2023/03/08 07:37:12;;;;;;;27.55;11.70;;;;;;;9.20;75.79;99771.50;4937469;29;20050;-70
2023/03/08 07:39:41;;;;;;;24.38;12.15;;;;;;;9.33;76.42;99778.19;4952075;29;20054;-70
2023/03/08 07:42:10;;;;;;;22.58;10.82;;;;;;;9.47;75.28;99789.22;4937509;29;20045;-70
2023/03/08 07:44:38;;;;;;;26.48;13.13;;;;;;;9.87;73.87;99792.53;4952203;29;20048;-70
2023/03/08 07:47:07;;;;;;;29.58;12.10;;;;;;;10.07;72.97;99790.63;4937333;29;20063;-70
2023/03/08 07:49:35;;;;;;;26.17;10.75;;;;;;;10.08;72.52;99778.56;4937058;29;20055;-70
2023/03/08 07:52:03;;;;;;;20.75;10.65;;;;;;;10.38;71.71;99773.75;4935876;29;20040;-70
2023/03/08 07:54:31;;;;;;;22.55;10.07;;;;;;;10.79;69.78;99765.97;4937220;29;20059;-70
2023/03/08 07:56:58;;;;;;;19.95;9.52;;;;;;;10.78;68.90;99781.56;4937280;29;20086;-70
2023/03/08 07:59:26;;;;;;;19.90;9.50;;;;;;;10.89;68.88;99776.72;4937253;29;20051;-71
2023/03/08 08:01:54;;;;;;;17.13;9.05;;;;;;;11.20;67.08;99770.66;4935517;29;20263;-71
2023/03/08 08:04:22;;;;;;;16.50;8.70;;;;;;;11.17;66.04;99771.28;4937131;29;20054;-70
2023/03/08 08:06:50;;;;;;;18.02;8.77;;;;;;;11.13;67.63;99775.72;4951247;29;20052;-70
2023/03/08 08:09:17;;;;;;;15.15;7.82;;;;;;;11.10;66.54;99784.56;4945456;29;20056;-70
2023/03/08 08:11:45;;;;;;;13.02;7.55;;;;;;;11.51;64.76;99785.69;4939002;29;20043;-70
2023/03/08 08:14:13;;;;;;;18.65;8.10;;;;;;;11.74;65.21;99785.75;4969907;28;20049;-70
2023/03/08 08:16:42;;;;;;;14.23;7.75;;;;;;;11.83;66.10;99801.16;4957674;28;20061;-71
2023/03/08 08:19:11;;;;;;;17.13;8.88;;;;;;;12.39;65.10;99821.34;4973700;28;20493;-70
2023/03/08 08:21:39;;;;;;;12.65;7.15;;;;;;;12.51;63.61;99818.84;4974834;28;20047;-71
2023/03/08 08:24:08;;;;;;;19.67;8.48;;;;;;;13.05;61.38;99826.28;4975335;28;20047;-70
2023/03/08 08:26:35;;;;;;;16.85;8.13;;;;;;;13.01;59.13;99822.56;4975239;28;20047;-71
2023/03/08 08:29:03;;;;;;;14.68;8.02;;;;;;;12.94;61.11;99833.19;4975147;28;20050;-71
2023/03/08 08:31:31;;;;;;;16.23;7.97;;;;;;;12.81;60.54;99841.19;4975261;28;20512;-70
2023/03/08 08:33:59;;;;;;;17.00;7.95;;;;;;;13.06;59.51;99832.59;4974117;28;20051;-71
2023/03/08 08:36:27;;;;;;;19.17;8.93;;;;;;;13.17;59.30;99836.72;4975143;28;20050;-71
2023/03/08 08:38:55;;;;;;;14.35;8.45;;;;;;;13.27;59.51;99833.69;4975112;28;20058;-71
2023/03/08 08:41:23;;;;;;;18.75;9.43;;;;;;;12.96;61.97;99841.94;4974937;28;20047;-71
2023/03/08 08:43:51;;;;;;;12.00;7.97;;;;;;;13.16;61.04;99835.09;4974408;28;20035;-71
2023/03/08 08:46:18;;;;;;;14.50;7.88;;;;;;;13.72;59.57;99839.38;4960301;28;20055;-71
2023/03/08 08:48:46;;;;;;;16.17;8.98;;;;;;;14.04;57.42;99845.56;4954100;29;20054;-71
2023/03/08 08:51:14;;;;;;;17.85;9.60;;;;;;;13.33;59.57;99826.09;4954063;29;20055;-71
2023/03/08 08:53:43;;;;;;;17.63;9.43;;;;;;;13.28;61.87;99821.56;4937798;29;20418;-70
2023/03/08 08:56:16;;;;;;;19.30;9.57;;;;;;;13.09;62.36;99819.03;4955552;29;20051;-70
2023/03/08 08:58:59;;;;;;;15.32;9.38;;;;;;;13.54;61.84;99822.81;4954298;29;20050;-68
2023/03/08 09:01:30;;;;;;;21.50;10.13;;;;;;;13.81;60.37;99821.75;4970629;28;20061;-68
2023/03/08 09:03:58;;;;;;;24.08;9.43;;;;;;;13.54;60.17;99820.06;4973924;28;20523;-68
2023/03/08 09:06:28;;;;;;;21.98;10.25;;;;;;;13.33;60.96;99806.88;4972669;28;20453;-68
2023/03/08 09:08:57;;;;;;;21.00;9.63;;;;;;;13.74;60.35;99810.41;4972560;28;20047;-68
2023/03/08 09:11:26;;;;;;;17.13;9.32;;;;;;;13.56;59.84;99817.81;4974382;28;20057;-68
2023/03/08 09:13:55;;;;;;;18.80;9.35;;;;;;;13.73;60.58;99803.28;4973575;28;20054;-69
2023/03/08 09:16:26;;;;;;;16.80;10.20;;;;;;;13.25;59.65;99811.19;4941063;28;20054;-68
2023/03/08 09:18:56;;;;;;;19.95;10.88;;;;;;;13.67;59.97;99816.38;4956103;28;20051;-70
2023/03/08 09:21:25;;;;;;;22.17;10.63;;;;;;;13.70;59.32;99815.72;4939590;28;20140;-70
2023/03/08 09:23:55;;;;;;;28.25;11.00;;;;;;;13.66;59.40;99827.69;4940081;28;20405;-70
2023/03/08 09:26:23;;;;;;;21.42;11.60;;;;;;;13.98;58.94;99842.97;4939537;28;20046;-70
2023/03/08 09:28:50;;;;;;;20.60;10.77;;;;;;;14.01;58.83;99836.03;4913904;29;20047;-71
2023/03/08 09:31:18;;;;;;;22.58;10.88;;;;;;;14.28;58.22;99836.03;4952942;29;20066;-71
2023/03/08 09:33:50;;;;;;;22.45;10.85;;;;;;;14.67;56.30;99836.19;4940159;28;20062;-71
2023/03/08 09:36:19;;;;;;;23.45;11.77;;;;;;;14.52;55.90;99833.59;4924592;28;20049;-70
2023/03/08 09:38:49;;;;;;;21.00;12.27;;;;;;;14.42;57.69;99842.19;4923433;28;20061;-70
2023/03/08 09:41:43;;;;;;;25.42;12.48;;;;;;;14.21;58.27;99828.25;4940080;28;20053;-72
2023/03/08 09:44:29;;;;;;;23.23;12.80;;;;;;;13.98;59.16;99842.16;4930806;28;20058;-72
2023/03/08 09:47:15;;;;;;;24.65;12.55;;;;;;;14.15;58.61;99846.88;4924775;28;20302;-72
2023/03/08 09:49:48;;;;;;;25.95;12.45;;;;;;;14.04;58.70;99856.59;4924466;28;20043;-72
2023/03/08 09:52:32;;;;;;;25.65;12.80;;;;;;;13.95;59.12;99860.13;4924912;28;20053;-72
2023/03/08 09:55:02;;;;;;;25.13;12.82;;;;;;;13.94;59.35;99866.75;4925019;28;20057;-71
2023/03/08 09:57:41;;;;;;;22.95;12.07;;;;;;;13.86;60.35;99862.03;4924433;28;20062;-71
2023/03/08 10:00:19;;;;;;;27.77;13.07;;;;;;;14.04;59.36;99851.91;4924855;28;20050;-71
2023/03/08 10:03:09;;;;;;;22.00;12.00;;;;;;;13.50;60.87;99854.81;4924653;28;20058;-71
2023/03/08 10:06:07;;;;;;;23.77;12.07;;;;;;;13.86;62.38;99834.53;4924455;28;20410;-72
2023/03/08 10:09:06;;;;;;;26.15;12.57;;;;;;;14.26;59.52;99835.56;4924275;28;20066;-72
2023/03/08 10:11:49;;;;;;;25.45;12.90;;;;;;;14.29;61.35;99844.00;4924393;28;20058;-71
2023/03/08 10:14:17;;;;;;;25.77;13.00;;;;;;;14.91;58.95;99843.97;4924571;28;20051;-71
2023/03/08 10:16:52;;;;;;;25.40;13.98;;;;;;;15.15;57.71;99848.13;4924208;28;20051;-72
2023/03/08 10:19:30;;;;;;;23.90;11.85;;;;;;;15.45;56.53;99845.41;4924646;28;20077;-72
2023/03/08 10:22:06;;;;;;;26.95;13.30;;;;;;;15.14;56.82;99857.50;4924158;28;20051;-72
2023/03/08 10:24:48;;;;;;;23.45;13.68;;;;;;;15.30;57.65;99857.78;4924197;28;20043;-71
2023/03/08 10:27:23;;;;;;;22.50;12.25;;;;;;;15.04;57.11;99858.66;4939761;28;20398;-70
2023/03/08 10:29:54;;;;;;;29.00;13.88;;;;;;;14.93;57.40;99847.19;4924712;28;20055;-74
2023/03/08 10:32:23;;;;;;;25.05;13.02;;;;;;;15.16;56.77;99842.25;4924910;28;20053;-74
2023/03/08 10:35:00;;;;;;;26.38;12.55;;;;;;;15.50;55.65;99838.91;4925411;28;20073;-74
2023/03/08 10:37:32;;;;;;;21.75;12.15;;;;;;;15.28;55.81;99841.59;4940292;28;20051;-74
2023/03/08 10:40:05;;;;;;;24.42;12.95;;;;;;;15.42;58.45;99829.53;4924366;28;20051;-74
2023/03/08 10:42:34;;;;;;;27.55;13.10;;;;;;;15.73;56.09;99828.38;4924650;28;20499;-74
2023/03/08 10:45:10;;;;;;;24.48;13.82;;;;;;;15.68;56.34;99818.34;4923961;28;20050;-74
2023/03/08 10:47:38;;;;;;;24.85;12.32;;;;;;;15.58;54.87;99825.06;4924431;28;20050;-74
2023/03/08 10:50:15;;;;;;;22.83;12.75;;;;;;;16.04;54.47;99821.72;4923982;28;20043;-75
2023/03/08 10:52:45;;;;;;;24.55;12.05;;;;;;;16.22;54.47;99827.09;4924270;28;20055;-74
2023/03/08 10:55:17;;;;;;;25.67;12.90;;;;;;;16.40;54.58;99822.25;4924627;28;20059;-74
2023/03/08 10:58:02;;;;;;;22.73;12.02;;;;;;;16.75;52.81;99824.69;4942053;28;20080;-74
2023/03/08 11:00:33;;;;;;;;;;;;;;;16.82;52.78;99806.75;4928325;28;20417;-74
2023/03/08 11:03:11;;;;;;;24.70;11.88;;;;;;;16.96;51.52;99809.22;4943486;28;19925;-74
2023/03/08 11:05:50;;;;;;;25.98;11.15;;;;;;;17.33;50.13;99812.03;4927858;28;20051;-74
2023/03/08 11:08:22;;;;;;;20.85;11.30;;;;;;;17.13;50.06;99809.03;4927705;28;20073;-75
2023/03/08 11:11:01;;;;;;;17.40;10.70;;;;;;;17.10;49.64;99806.94;4927957;28;20066;-74
2023/03/08 11:13:32;;;;;;;20.75;10.43;;;;;;;17.29;50.13;99808.34;4927806;28;20050;-74
2023/03/08 11:16:18;;;;;;;21.13;11.02;;;;;;;17.42;50.89;99803.63;4927544;28;20062;-74
2023/03/08 11:19:09;;;;;;;20.40;10.95;;;;;;;17.65;48.61;99801.19;4927203;28;20055;-74
2023/03/08 11:21:47;;;;;;;29.80;11.77;;;;;;;16.81;50.53;99783.84;4895043;28;20054;-75
2023/03/08 11:24:34;;;;;;;18.80;11.38;;;;;;;16.92;51.33;99767.66;4941970;28;20606;-75
2023/03/08 11:27:10;;;;;;;24.55;11.52;;;;;;;16.78;50.69;99752.16;4925620;28;20047;-75
2023/03/08 11:29:44;;;;;;;22.27;11.07;;;;;;;16.89;51.00;99755.31;4942690;28;20042;-74
2023/03/08 11:32:57;;;;;;;20.48;10.23;;;;;;;16.78;50.82;99749.41;4959149;28;20051;-75
2023/03/08 11:36:00;;;;;;;16.48;8.70;;;;;;;16.75;51.03;99754.81;4976063;28;20473;-75
2023/03/08 11:38:30;;;;;;;20.63;9.80;;;;;;;16.08;52.43;99773.00;4917649;28;20062;-74
2023/03/08 11:41:07;;;;;;;17.63;9.90;;;;;;;16.40;52.71;99769.81;4976111;28;20560;-74
2023/03/08 11:43:58;;;;;;;19.52;10.35;;;;;;;16.43;51.72;99760.03;4958520;28;20058;-74
2023/03/08 11:47:09;;;;;;;18.00;9.90;;;;;;;16.58;52.34;99748.34;4975829;28;20055;-75